Time;durP1;ratioP1;P1;durP2;ratioP2;P2;SDS_P1;SDS_P2;PMS_P1;PMS_P2;Temp;Humidity;BMP_temperature;BMP_pressure;BME280_temperature;BME280_humidity;BME280_pressure;Samples;Min_cycle;Max_cycle;Signal;HPM_P1;HPM_P2
2022/10/10 00:01:15;;;;;;;25.10;14.25;;;;;;;5.13;75.01;102335.13;1773791;80;21100;-89
2022/10/10 00:03:42;;;;;;;18.82;12.70;;;;;;;5.04;75.04;102337.55;1752058;80;21764;-89
2022/10/10 00:06:09;;;;;;;22.93;12.85;;;;;;;4.99;75.15;102331.11;1773439;79;21061;-89
2022/10/10 00:08:36;;;;;;;23.80;13.50;;;;;;;4.98;75.26;102323.17;1763062;80;21037;-89
2022/10/10 00:11:03;;;;;;;20.92;13.53;;;;;;;4.96;75.34;102319.54;1763314;80;21029;-90
2022/10/10 00:13:30;;;;;;;22.62;13.45;;;;;;;4.95;75.41;102313.80;1752422;80;21078;-90
2022/10/10 00:16:03;;;;;;;21.55;13.38;;;;;;;4.93;75.46;102313.68;1752533;80;22571;-91
2022/10/10 00:18:30;;;;;;;21.00;13.57;;;;;;;4.93;75.58;102319.30;1752702;80;21042;-92
2022/10/10 00:20:56;;;;;;;22.35;13.22;;;;;;;4.93;75.66;102314.98;1752407;80;21141;-90
2022/10/10 00:23:23;;;;;;;24.40;13.13;;;;;;;4.90;75.59;102314.78;1752371;80;21096;-90
2022/10/10 00:25:50;;;;;;;22.87;13.53;;;;;;;4.89;75.65;102312.05;1752484;80;21123;-88
2022/10/10 00:28:18;;;;;;;23.83;11.65;;;;;;;4.89;75.70;102314.66;1764813;79;21826;-88
2022/10/10 00:30:45;;;;;;;23.50;12.30;;;;;;;4.86;75.77;102308.43;1765220;79;21045;-89
2022/10/10 00:33:11;;;;;;;26.73;12.65;;;;;;;4.88;75.89;102313.77;1758928;80;21406;-88
2022/10/10 00:35:38;;;;;;;20.35;11.70;;;;;;;4.90;75.96;102313.85;1765314;79;21014;-88
2022/10/10 00:38:05;;;;;;;20.37;12.70;;;;;;;4.90;75.89;102322.61;1749586;80;21105;-88
2022/10/10 00:40:32;;;;;;;18.37;11.90;;;;;;;4.89;75.95;102315.56;1765306;78;21826;-89
2022/10/10 00:42:59;;;;;;;17.48;12.10;;;;;;;4.91;75.97;102316.98;1765145;80;21076;-88
2022/10/10 00:45:38;;;;;;;18.27;11.68;;;;;;;4.87;75.86;102313.24;1768522;79;21049;-89
2022/10/10 00:48:20;;;;;;;19.80;11.45;;;;;;;4.83;75.84;102313.82;1780932;79;21072;-87
2022/10/10 00:50:57;;;;;;;20.77;11.65;;;;;;;4.82;75.87;102322.05;1787889;79;21065;-89
2022/10/10 00:53:35;;;;;;;22.80;12.28;;;;;;;4.81;75.97;102308.89;1766237;79;21748;-93
2022/10/10 00:56:01;;;;;;;16.75;10.38;;;;;;;4.81;76.05;102311.09;1774047;79;21819;-89
2022/10/10 00:58:30;;;;;;;17.12;10.60;;;;;;;4.82;76.19;102311.98;1773180;79;21678;-90
2022/10/10 01:00:57;;;;;;;20.23;10.98;;;;;;;4.84;76.31;102311.70;1797935;78;21072;-90
2022/10/10 01:03:24;;;;;;;23.35;12.53;;;;;;;4.84;76.31;102310.02;1766224;81;21035;-90
2022/10/10 01:05:51;;;;;;;23.55;12.53;;;;;;;4.84;76.29;102307.41;1785747;79;22477;-90
2022/10/10 01:08:18;;;;;;;21.50;11.80;;;;;;;4.84;76.24;102307.79;1775306;79;21101;-90
2022/10/10 01:11:08;;;;;;;20.60;11.45;;;;;;;4.82;76.19;102304.16;1780798;79;21053;-89
2022/10/10 01:14:00;;;;;;;21.35;11.90;;;;;;;4.79;76.20;102301.35;1749879;79;21939;-89
2022/10/10 01:16:35;;;;;;;18.65;11.20;;;;;;;4.80;76.30;102299.23;1765575;79;21042;-89
2022/10/10 01:19:25;;;;;;;20.27;11.08;;;;;;;4.76;76.15;102302.02;1779178;79;21798;-89
2022/10/10 01:22:27;;;;;;;19.55;10.65;;;;;;;4.74;76.22;102296.19;1790778;79;21042;-88
2022/10/10 01:25:10;;;;;;;19.60;10.93;;;;;;;4.73;76.24;102293.98;1754516;79;21049;-89
2022/10/10 01:28:01;;;;;;;19.12;11.60;;;;;;;4.72;76.17;102291.25;1738998;81;21030;-88
2022/10/10 01:30:29;;;;;;;17.02;11.20;;;;;;;4.64;75.99;102291.59;1742107;81;21552;-89
2022/10/10 01:33:15;;;;;;;20.72;11.03;;;;;;;4.60;76.08;102286.05;1724644;81;22631;-89
2022/10/10 01:35:52;;;;;;;20.40;10.72;;;;;;;4.59;76.14;102289.03;1724583;81;21069;-89
2022/10/10 01:38:44;;;;;;;17.35;11.28;;;;;;;4.56;76.09;102286.59;1724674;81;21059;-90
2022/10/10 01:41:25;;;;;;;18.98;10.72;;;;;;;4.53;76.14;102285.09;1766800;80;21010;-89
2022/10/10 01:43:56;;;;;;;16.80;10.90;;;;;;;4.48;76.17;102283.02;1716052;82;21194;-89
2022/10/10 01:46:23;;;;;;;22.65;11.90;;;;;;;4.43;76.14;102285.70;1733912;81;21813;-80
2022/10/10 01:48:52;;;;;;;20.92;11.93;;;;;;;4.36;76.12;102279.92;1786852;78;21053;-80
2022/10/10 01:52:04;;;;;;;19.10;10.15;;;;;;;4.33;76.09;102280.98;1786903;78;21052;-80
2022/10/10 01:54:48;;;;;;;19.15;10.80;;;;;;;4.30;76.16;102281.67;1786878;78;21045;-80
2022/10/10 01:57:18;;;;;;;;;;;;;;;4.27;76.25;102282.33;1789399;78;21076;-80
2022/10/10 02:00:09;;;;;;;18.35;10.50;;;;;;;4.26;76.22;102292.27;1809393;78;21799;-79
2022/10/10 02:02:59;;;;;;;16.23;10.75;;;;;;;4.24;76.25;102287.70;1785760;78;21068;-79
2022/10/10 02:05:43;;;;;;;20.57;11.25;;;;;;;4.24;76.34;102286.41;1749041;80;21078;-79
2022/10/10 02:08:18;;;;;;;19.35;9.93;;;;;;;4.20;76.13;102286.56;1733726;81;21041;-79
2022/10/10 02:10:55;;;;;;;16.70;9.53;;;;;;;4.15;76.17;102294.83;1786779;78;21064;-79
2022/10/10 02:13:24;;;;;;;19.98;10.13;;;;;;;4.14;76.29;102290.42;1786422;78;21773;-80
2022/10/10 02:15:53;;;;;;;19.15;10.28;;;;;;;4.12;76.33;102295.52;1732723;81;21326;-80
2022/10/10 02:18:21;;;;;;;20.48;10.48;;;;;;;4.14;76.45;102293.93;1733883;81;21120;-80
2022/10/10 02:20:49;;;;;;;17.67;9.85;;;;;;;4.15;76.50;102300.04;1786834;78;21045;-80
2022/10/10 02:23:17;;;;;;;17.65;10.85;;;;;;;4.15;76.56;102298.73;1786719;78;21096;-80
2022/10/10 02:25:46;;;;;;;16.85;9.63;;;;;;;4.16;76.61;102295.36;1783639;77;21741;-80
2022/10/10 02:28:17;;;;;;;18.02;9.93;;;;;;;4.15;76.60;102289.61;1819555;76;21572;-80
2022/10/10 02:30:46;;;;;;;17.07;10.38;;;;;;;4.14;76.66;102287.41;1819259;77;21044;-80
2022/10/10 02:33:24;;;;;;;19.87;9.88;;;;;;;4.14;76.74;102284.81;1819624;77;21400;-81
2022/10/10 02:35:51;;;;;;;15.90;9.33;;;;;;;4.16;76.79;102288.44;1841420;76;21018;-80
2022/10/10 02:38:18;;;;;;;15.70;8.75;;;;;;;4.17;76.76;102282.84;1830231;75;21734;-83
2022/10/10 02:40:45;;;;;;;16.12;8.90;;;;;;;4.15;76.65;102287.94;1820741;77;21029;-91
2022/10/10 02:43:12;;;;;;;13.85;8.15;;;;;;;4.15;76.74;102290.92;1820318;77;21045;-92
2022/10/10 02:45:39;;;;;;;15.85;8.88;;;;;;;4.16;76.80;102294.05;1816931;77;21018;-83
2022/10/10 02:48:05;;;;;;;16.97;9.10;;;;;;;4.17;76.84;102291.97;1854248;77;21034;-93
2022/10/10 02:50:32;;;;;;;18.02;9.30;;;;;;;4.16;76.78;102294.95;1826847;77;21744;-83
2022/10/10 02:53:07;;;;;;;17.25;8.90;;;;;;;4.15;76.71;102289.61;1820632;77;21013;-92
2022/10/10 02:55:34;;;;;;;16.30;8.68;;;;;;;4.14;76.76;102285.21;1838731;76;21533;-92
2022/10/10 02:58:01;;;;;;;15.90;9.60;;;;;;;4.13;76.76;102283.38;1820529;78;20983;-92
2022/10/10 03:00:27;;;;;;;15.20;9.00;;;;;;;4.11;76.74;102287.20;1827363;75;21033;-92
2022/10/10 03:02:55;;;;;;;14.70;8.90;;;;;;;4.07;76.63;102278.62;1865449;76;22010;-92
2022/10/10 03:05:22;;;;;;;16.50;9.80;;;;;;;4.07;76.69;102289.04;1840307;75;21045;-92
2022/10/10 03:07:53;;;;;;;14.55;9.58;;;;;;;4.07;76.76;102288.67;1820742;78;21101;-93
2022/10/10 03:10:20;;;;;;;15.45;9.58;;;;;;;4.08;76.78;102284.35;1836476;77;21027;-91
2022/10/10 03:12:54;;;;;;;16.35;9.93;;;;;;;4.08;76.79;102284.35;1854195;77;21027;-91
2022/10/10 03:15:20;;;;;;;15.38;9.55;;;;;;;4.08;76.87;102280.45;1854328;76;27307;-90
2022/10/10 03:17:48;;;;;;;16.90;9.53;;;;;;;4.06;76.76;102282.03;1853631;76;21015;-89
2022/10/10 03:20:15;;;;;;;17.07;9.20;;;;;;;4.00;76.78;102274.66;1851783;76;21098;-90
2022/10/10 03:22:41;;;;;;;14.53;9.75;;;;;;;4.00;76.87;102275.96;1831789;77;21014;-90
2022/10/10 03:25:08;;;;;;;15.38;10.03;;;;;;;4.01;76.98;102275.15;1810240;77;20987;-90
2022/10/10 03:27:36;;;;;;;15.50;9.78;;;;;;;4.02;76.94;102278.69;1771688;79;22136;-88
2022/10/10 03:30:04;;;;;;;17.50;9.73;;;;;;;4.03;77.04;102279.18;1755010;80;21261;-88
2022/10/10 03:32:32;;;;;;;15.32;9.65;;;;;;;3.98;76.84;102277.91;1771285;80;21128;-88
2022/10/10 03:34:59;;;;;;;22.00;10.58;;;;;;;3.94;76.92;102279.78;1752199;80;21034;-89
2022/10/10 03:37:25;;;;;;;18.98;9.90;;;;;;;3.94;76.91;102280.71;1762246;80;21060;-88
2022/10/10 03:39:53;;;;;;;18.70;10.45;;;;;;;3.93;76.90;102277.58;1763765;80;21919;-80
2022/10/10 03:42:19;;;;;;;16.42;10.40;;;;;;;3.93;76.97;102276.68;1752039;80;21092;-80
2022/10/10 03:44:46;;;;;;;17.75;10.53;;;;;;;3.90;76.89;102277.33;1752483;80;21085;-81
2022/10/10 03:47:13;;;;;;;16.00;10.80;;;;;;;3.89;76.96;102279.04;1777278;78;21056;-83
2022/10/10 03:49:40;;;;;;;20.02;10.63;;;;;;;3.90;77.04;102274.73;1753424;80;21581;-82
2022/10/10 03:52:07;;;;;;;21.95;12.15;;;;;;;3.91;77.09;102269.14;1775286;80;21802;-83
2022/10/10 03:54:34;;;;;;;19.57;12.20;;;;;;;3.89;77.07;102267.72;1764964;78;21073;-83
2022/10/10 03:57:00;;;;;;;19.77;11.05;;;;;;;3.89;77.15;102273.83;1771425;78;21049;-82
2022/10/10 03:59:27;;;;;;;19.48;10.88;;;;;;;3.90;77.11;102265.61;1780004;80;21464;-84
2022/10/10 04:01:54;;;;;;;17.50;11.15;;;;;;;3.89;77.03;102270.33;1752035;80;21072;-82
2022/10/10 04:04:21;;;;;;;20.23;12.23;;;;;;;3.88;77.14;102272.00;1751934;80;22714;-82
2022/10/10 04:06:48;;;;;;;21.33;12.63;;;;;;;3.85;76.94;102266.58;1752081;80;21092;-81
2022/10/10 04:09:15;;;;;;;22.27;12.75;;;;;;;3.79;76.93;102266.48;1752031;80;21141;-82
2022/10/10 04:11:42;;;;;;;23.85;14.28;;;;;;;3.77;77.07;102270.27;1751747;80;21072;-82
2022/10/10 04:14:10;;;;;;;26.73;15.48;;;;;;;3.76;77.13;102268.88;1751830;80;21065;-81
2022/10/10 04:16:37;;;;;;;22.45;13.88;;;;;;;3.75;77.22;102269.66;1752055;80;21793;-83
2022/10/10 04:19:03;;;;;;;24.30;14.75;;;;;;;3.73;77.26;102268.62;1752266;80;21567;-83
2022/10/10 04:21:30;;;;;;;19.95;14.30;;;;;;;3.64;77.28;102253.20;1780254;78;21056;-82
2022/10/10 04:23:57;;;;;;;22.40;14.23;;;;;;;3.73;77.25;102273.44;1782881;80;21131;-82
2022/10/10 04:26:24;;;;;;;25.45;14.95;;;;;;;3.70;77.22;102275.42;1783265;80;21056;-88
2022/10/10 04:28:51;;;;;;;22.77;15.25;;;;;;;3.69;77.25;102273.99;1793112;79;21743;-89
2022/10/10 04:31:17;;;;;;;25.08;14.13;;;;;;;3.66;77.28;102275.98;1782480;79;21061;-92
2022/10/10 04:33:44;;;;;;;27.05;14.03;;;;;;;3.65;77.24;102272.84;1789641;79;21060;-91
2022/10/10 04:36:12;;;;;;;23.27;13.90;;;;;;;3.61;77.20;102280.31;1796781;79;21049;-92
2022/10/10 04:38:39;;;;;;;19.85;13.25;;;;;;;3.62;77.23;102273.00;1796772;79;21106;-92
2022/10/10 04:41:13;;;;;;;23.77;14.65;;;;;;;3.63;77.23;102275.73;1797601;79;21773;-94
2022/10/10 04:43:40;;;;;;;21.15;14.38;;;;;;;3.60;77.23;102271.58;1795191;79;21591;-90
2022/10/10 04:46:07;;;;;;;25.95;14.13;;;;;;;3.61;77.31;102272.10;1774380;79;21026;-95
2022/10/10 04:48:35;;;;;;;21.65;14.53;;;;;;;3.61;77.24;102271.20;1779322;79;21117;-93
2022/10/10 04:51:09;;;;;;;23.85;15.08;;;;;;;3.58;77.24;102270.55;1763267;81;21068;-93
2022/10/10 04:54:12;;;;;;;25.23;17.65;;;;;;;3.56;77.26;102273.44;1766588;81;21766;-93
2022/10/10 04:56:41;;;;;;;26.17;18.67;;;;;;;3.55;77.33;102264.20;1766251;81;21038;-92
2022/10/10 04:59:09;;;;;;;27.70;19.77;;;;;;;3.54;77.47;102259.39;1783542;79;21046;-95
2022/10/10 05:01:35;;;;;;;28.98;19.95;;;;;;;3.54;77.48;102256.79;1797945;79;21118;-93
2022/10/10 05:04:04;;;;;;;32.40;21.48;;;;;;;3.52;77.54;102250.56;1797643;79;21030;-95
2022/10/10 05:06:31;;;;;;;31.42;20.75;;;;;;;3.50;77.57;102249.53;1797356;79;21758;-92
2022/10/10 05:08:57;;;;;;;30.05;21.50;;;;;;;3.43;77.63;102236.42;1796416;79;21063;-92
2022/10/10 05:11:26;;;;;;;32.13;20.92;;;;;;;3.50;77.73;102243.03;1767309;79;20999;-92
2022/10/10 05:13:54;;;;;;;34.27;20.82;;;;;;;3.52;77.78;102244.05;1796879;79;21020;-92
2022/10/10 05:16:21;;;;;;;27.98;19.10;;;;;;;3.52;77.81;102232.34;1791474;78;21072;-94
2022/10/10 05:18:47;;;;;;;26.17;19.42;;;;;;;3.53;77.84;102238.07;1792955;79;21754;-89
2022/10/10 05:21:14;;;;;;;25.80;18.12;;;;;;;3.58;77.99;102236.70;1784380;79;21065;-90
2022/10/10 05:23:41;;;;;;;27.80;17.90;;;;;;;3.62;77.96;102236.55;1781033;79;21050;-88
2022/10/10 05:26:08;;;;;;;28.55;18.25;;;;;;;3.66;78.04;102234.69;1781356;79;21240;-83
2022/10/10 05:28:35;;;;;;;26.87;18.57;;;;;;;3.72;78.14;102231.64;1768051;80;21131;-84
2022/10/10 05:31:03;;;;;;;23.32;17.57;;;;;;;3.77;78.20;102235.11;1771607;80;21706;-84
2022/10/10 05:33:30;;;;;;;25.60;17.35;;;;;;;3.82;78.13;102238.08;1769601;80;21047;-90
2022/10/10 05:36:12;;;;;;;25.32;18.37;;;;;;;3.86;78.16;102234.51;1762910;80;21775;-90
2022/10/10 05:38:41;;;;;;;;;;;;;;;3.96;78.29;102241.72;1739716;80;21047;-87
2022/10/10 05:41:11;;;;;;;29.02;18.62;;;;;;;4.04;78.26;102237.61;1755916;80;20236;-88
2022/10/10 05:43:38;;;;;;;33.13;21.87;;;;;;;4.12;78.24;102230.77;1751947;80;22571;-87
2022/10/10 05:46:05;;;;;;;29.02;22.82;;;;;;;4.20;78.30;102233.13;1758946;80;21109;-86
2022/10/10 05:48:32;;;;;;;35.95;24.10;;;;;;;4.23;78.13;102229.47;1763551;80;21669;-89
2022/10/10 05:50:59;;;;;;;31.93;23.77;;;;;;;4.25;78.00;102229.18;1758580;80;21027;-89
2022/10/10 05:53:26;;;;;;;31.73;23.15;;;;;;;4.28;78.07;102228.52;1750569;80;21030;-90
2022/10/10 05:55:56;;;;;;;33.18;24.32;;;;;;;4.35;78.16;102227.25;1770434;80;21764;-89
2022/10/10 05:58:25;;;;;;;29.90;23.25;;;;;;;4.33;78.17;102216.71;1766650;80;21118;-84
2022/10/10 06:00:51;;;;;;;37.45;24.70;;;;;;;4.48;78.15;102229.56;1751978;80;21067;-83
2022/10/10 06:03:18;;;;;;;35.43;24.75;;;;;;;4.51;78.06;102230.20;1742260;80;21060;-84
2022/10/10 06:05:47;;;;;;;36.13;24.18;;;;;;;4.53;78.06;102229.02;1742225;80;21532;-81
2022/10/10 06:08:15;;;;;;;32.03;22.22;;;;;;;4.59;78.13;102225.55;1742213;80;21765;-81
2022/10/10 06:10:44;;;;;;;31.20;21.90;;;;;;;4.64;78.25;102222.48;1741945;80;21284;-81
2022/10/10 06:13:11;;;;;;;32.58;21.33;;;;;;;4.73;78.33;102219.64;1746134;80;21070;-81
2022/10/10 06:15:39;;;;;;;28.67;19.37;;;;;;;4.80;78.33;102221.87;1758946;80;21157;-81
2022/10/10 06:18:06;;;;;;;30.05;18.70;;;;;;;4.86;78.43;102223.64;1743827;80;21133;-81
2022/10/10 06:20:37;;;;;;;39.08;20.08;;;;;;;4.93;78.47;102215.83;1758333;80;21752;-80
2022/10/10 06:23:04;;;;;;;33.55;21.35;;;;;;;5.00;78.56;102211.97;1755361;80;21067;-81
2022/10/10 06:25:33;;;;;;;29.50;20.32;;;;;;;5.10;78.68;102213.52;1741549;80;21042;-84
2022/10/10 06:28:00;;;;;;;33.02;20.43;;;;;;;5.20;78.78;102216.89;1741434;81;21512;-82
2022/10/10 06:30:26;;;;;;;36.88;20.68;;;;;;;5.30;78.85;102213.22;1779290;77;21120;-83
2022/10/10 06:32:53;;;;;;;31.85;20.45;;;;;;;5.42;78.95;102213.15;1773450;79;21765;-81
2022/10/10 06:35:20;;;;;;;32.78;21.37;;;;;;;5.52;78.93;102203.86;1723864;81;22183;-81
2022/10/10 06:41:55;;;;;;;29.63;19.17;;;;;;;5.74;79.14;102207.92;1779972;80;21058;-94
2022/10/10 06:44:24;;;;;;;25.08;18.55;;;;;;;5.92;79.19;102204.36;1760301;79;21120;-82
2022/10/10 06:46:51;;;;;;;25.05;18.55;;;;;;;6.03;79.18;102208.63;1801543;77;21757;-82
2022/10/10 06:49:18;;;;;;;29.07;19.25;;;;;;;6.12;79.17;102199.16;1760276;79;21516;-91
2022/10/10 06:51:45;;;;;;;28.80;20.08;;;;;;;6.20;79.22;102205.41;1799036;78;21050;-83
2022/10/10 06:54:12;;;;;;;33.35;20.95;;;;;;;6.27;79.15;102205.81;1763066;79;21091;-83
2022/10/10 06:56:38;;;;;;;35.00;19.77;;;;;;;6.33;79.17;102199.70;1779208;78;21080;-91
2022/10/10 06:59:06;;;;;;;32.83;20.08;;;;;;;6.41;79.17;102195.86;1776465;79;21796;-83
2022/10/10 07:01:32;;;;;;;27.93;20.30;;;;;;;6.49;79.18;102198.56;1779639;78;21664;-83
2022/10/10 07:03:59;;;;;;;33.28;21.82;;;;;;;6.58;79.14;102193.02;1760393;79;21105;-83
2022/10/10 07:06:26;;;;;;;41.53;22.52;;;;;;;6.68;79.25;102199.75;1782677;79;21101;-83
2022/10/10 07:08:53;;;;;;;33.00;21.45;;;;;;;6.75;79.21;102196.72;1760808;80;21445;-82
2022/10/10 07:11:21;;;;;;;28.65;21.15;;;;;;;6.83;79.27;102199.82;1760614;80;21731;-83
2022/10/10 07:13:49;;;;;;;32.58;22.22;;;;;;;6.92;79.36;102192.14;1760616;80;21046;-82
2022/10/10 07:16:16;;;;;;;28.67;20.85;;;;;;;7.03;79.34;102192.82;1760766;80;21105;-83
2022/10/10 07:18:43;;;;;;;29.60;20.57;;;;;;;7.15;79.45;102191.36;1788962;78;21065;-83
2022/10/10 07:21:13;;;;;;;29.77;21.15;;;;;;;7.25;79.54;102179.34;1772621;79;21104;-82
2022/10/10 07:23:40;;;;;;;30.37;21.25;;;;;;;7.37;79.61;102178.77;1779453;79;22579;-83
2022/10/10 07:26:11;;;;;;;34.08;24.02;;;;;;;7.50;79.61;102177.80;1777434;79;21088;-82
2022/10/10 07:28:38;;;;;;;50.17;29.87;;;;;;;7.62;79.61;102172.80;1760978;78;21049;-85
2022/10/10 07:31:10;;;;;;;40.05;26.80;;;;;;;7.72;79.50;102173.45;1801876;78;21077;-83
2022/10/10 07:33:40;;;;;;;36.68;26.07;;;;;;;7.83;79.46;102176.72;1820077;77;21300;-82
2022/10/10 07:36:07;;;;;;;25.17;19.17;;;;;;;7.95;79.45;102172.17;1819609;77;21799;-83
2022/10/10 07:38:35;;;;;;;25.23;18.20;;;;;;;8.06;79.30;102174.12;1819516;77;21034;-83
2022/10/10 07:41:11;;;;;;;28.87;19.52;;;;;;;8.15;79.16;102168.52;1819820;77;21042;-90
2022/10/10 07:43:39;;;;;;;28.17;19.12;;;;;;;8.26;79.24;102169.10;1819872;77;21066;-90
2022/10/10 07:46:08;;;;;;;26.00;18.52;;;;;;;8.37;79.07;102166.30;1832517;77;21089;-91
2022/10/10 07:48:35;;;;;;;26.40;19.85;;;;;;;8.45;78.99;102158.89;1811653;75;23475;-90
2022/10/10 07:51:06;;;;;;;24.85;18.17;;;;;;;8.56;78.85;102163.44;1842587;77;21066;-91
2022/10/10 07:53:32;;;;;;;22.00;16.75;;;;;;;8.65;78.80;102161.32;1842060;76;21019;-90
2022/10/10 07:55:59;;;;;;;23.30;16.40;;;;;;;8.75;78.73;102155.75;1852067;77;21590;-91
2022/10/10 07:58:26;;;;;;;21.25;14.13;;;;;;;8.85;78.72;102153.20;1847061;75;20987;-91
2022/10/10 08:01:06;;;;;;;18.85;13.35;;;;;;;8.95;78.70;102151.98;1851420;77;21747;-91
2022/10/10 08:03:39;;;;;;;19.25;13.22;;;;;;;9.05;78.46;102151.67;1832642;77;21074;-91
2022/10/10 08:06:09;;;;;;;18.27;12.37;;;;;;;9.13;78.24;102146.40;1830779;77;21520;-91
2022/10/10 08:08:36;;;;;;;20.10;13.70;;;;;;;9.20;78.09;102140.19;1850827;76;21207;-91
2022/10/10 08:11:07;;;;;;;19.77;12.88;;;;;;;9.27;78.00;102142.28;1851094;77;21019;-91
2022/10/10 08:13:34;;;;;;;17.52;11.78;;;;;;;9.36;77.99;102141.87;1874615;75;22781;-91
2022/10/10 08:16:01;;;;;;;22.42;13.18;;;;;;;9.44;77.92;102132.65;1854035;77;21019;-90
2022/10/10 08:18:28;;;;;;;26.62;18.17;;;;;;;9.52;77.85;102132.23;1823531;76;21018;-90
2022/10/10 08:21:00;;;;;;;16.45;11.53;;;;;;;9.61;77.72;102132.20;1837563;77;21015;-91
2022/10/10 08:23:27;;;;;;;20.88;12.78;;;;;;;9.68;77.71;102118.55;1825127;77;21030;-91
2022/10/10 08:25:55;;;;;;;16.55;11.03;;;;;;;9.78;77.56;102114.65;1831520;77;21740;-91
2022/10/10 08:28:22;;;;;;;19.65;12.10;;;;;;;9.85;77.36;102112.44;1795863;77;21511;-91
2022/10/10 08:30:49;;;;;;;19.27;11.57;;;;;;;9.92;77.18;102109.67;1840955;77;21093;-91
2022/10/10 08:33:16;;;;;;;21.15;15.48;;;;;;;9.99;77.08;102099.95;1838718;77;21035;-91
2022/10/10 08:35:43;;;;;;;24.77;14.98;;;;;;;10.05;76.93;102096.30;1843934;77;21070;-90
2022/10/10 08:38:13;;;;;;;36.55;28.38;;;;;;;10.11;76.85;102092.64;1821014;77;21817;-90
2022/10/10 08:40:45;;;;;;;18.23;13.13;;;;;;;10.20;76.72;102089.98;1827797;77;21003;-84
2022/10/10 08:43:33;;;;;;;18.27;10.03;;;;;;;10.29;76.73;102088.68;1833452;77;21018;-82
2022/10/10 08:46:11;;;;;;;14.63;9.93;;;;;;;10.39;76.63;102082.58;1812433;77;21006;-82
2022/10/10 08:48:38;;;;;;;14.43;9.25;;;;;;;10.49;76.50;102076.51;1781379;79;21116;-82
2022/10/10 08:51:12;;;;;;;14.23;9.90;;;;;;;10.56;76.29;102080.30;1785817;78;21689;-82
2022/10/10 08:53:50;;;;;;;12.45;9.75;;;;;;;10.65;76.23;102073.26;1787738;78;21073;-91
2022/10/10 08:56:21;;;;;;;14.95;9.58;;;;;;;10.70;76.11;102063.42;1776596;79;21634;-82
2022/10/10 08:58:54;;;;;;;13.90;8.85;;;;;;;10.78;75.92;102053.66;1793912;78;21532;-91
2022/10/10 09:01:27;;;;;;;13.00;8.53;;;;;;;10.84;76.39;102052.60;1792261;78;21148;-90
2022/10/10 09:04:00;;;;;;;14.43;8.38;;;;;;;10.90;76.43;102047.59;1764881;79;21778;-92
2022/10/10 09:06:44;;;;;;;14.65;7.83;;;;;;;10.96;76.11;102041.31;1765726;81;21127;-92
2022/10/10 09:09:42;;;;;;;15.43;9.90;;;;;;;11.03;75.89;102040.72;1757939;79;21053;-95
2022/10/10 09:12:45;;;;;;;11.93;9.38;;;;;;;11.11;75.73;102034.45;1782121;80;21061;-92
2022/10/10 09:15:29;;;;;;;14.07;9.33;;;;;;;11.21;75.56;102035.78;1821435;77;21002;-91
2022/10/10 09:18:24;;;;;;;17.37;11.28;;;;;;;11.28;75.45;102033.47;1821376;77;22506;-91
2022/10/10 09:21:25;;;;;;;;;;;;;;;11.43;75.28;102030.98;1823827;77;20974;-91
2022/10/10 09:24:43;;;;;;;13.45;7.53;;;;;;;11.51;75.02;102030.02;1820935;78;20165;-91
2022/10/10 09:27:14;;;;;;;12.95;6.80;;;;;;;11.58;74.79;102022.81;1863459;74;21169;-91
2022/10/10 09:30:01;;;;;;;12.82;8.65;;;;;;;11.67;74.68;102016.20;1812599;79;21069;-92
2022/10/10 09:32:39;;;;;;;9.53;6.80;;;;;;;11.74;74.38;102017.76;1824402;77;22637;-87
2022/10/10 09:35:17;;;;;;;10.05;6.12;;;;;;;11.77;74.22;102014.83;1843784;77;21270;-90
2022/10/10 09:37:44;;;;;;;9.60;5.90;;;;;;;11.83;74.10;102000.98;1827285;77;21045;-83
2022/10/10 09:40:32;;;;;;;9.05;6.00;;;;;;;11.92;74.05;101993.47;1835517;77;21045;-83
2022/10/10 09:43:10;;;;;;;13.13;6.85;;;;;;;11.99;73.73;101995.52;1818143;78;21009;-83
2022/10/10 09:45:40;;;;;;;11.97;5.83;;;;;;;12.07;73.54;101989.22;1806667;79;21960;-83
2022/10/10 09:48:08;;;;;;;11.22;6.45;;;;;;;12.13;73.33;101988.12;1812141;77;21069;-83
2022/10/10 09:50:34;;;;;;;8.85;5.40;;;;;;;12.18;72.95;101981.28;1783053;78;21091;-90
2022/10/10 09:53:02;;;;;;;9.38;5.40;;;;;;;12.20;72.53;101983.96;1836733;77;21006;-90
2022/10/10 09:55:33;;;;;;;10.78;5.50;;;;;;;12.22;72.29;101964.72;1842913;77;21010;-90
2022/10/10 09:58:39;;;;;;;8.60;5.05;;;;;;;12.27;72.01;101971.47;1819547;77;21749;-90
2022/10/10 10:01:27;;;;;;;9.83;5.33;;;;;;;12.30;71.88;101965.43;1841243;77;21000;-90
2022/10/10 10:04:20;;;;;;;9.50;5.22;;;;;;;12.37;71.73;101964.79;1801769;79;21108;-90
2022/10/10 10:06:49;;;;;;;11.65;5.50;;;;;;;12.39;71.41;101962.70;1841263;77;21091;-83
2022/10/10 10:09:19;;;;;;;7.83;4.78;;;;;;;12.42;71.34;101956.63;1819142;77;21849;-89
2022/10/10 10:11:47;;;;;;;10.90;5.08;;;;;;;12.48;71.19;101951.59;1813226;79;21772;-91
2022/10/10 10:14:32;;;;;;;8.35;5.15;;;;;;;12.53;70.97;101957.91;1831836;76;20999;-90
2022/10/10 10:17:12;;;;;;;13.90;5.25;;;;;;;12.60;70.78;101952.02;1806382;77;21054;-83
2022/10/10 10:19:41;;;;;;;8.50;4.65;;;;;;;12.66;70.47;101944.73;1785175;79;21061;-83
2022/10/10 10:22:34;;;;;;;9.33;6.92;;;;;;;12.73;70.35;101937.94;1813469;79;21073;-91
2022/10/10 10:25:31;;;;;;;12.30;5.87;;;;;;;12.78;70.22;101926.69;1838049;77;21778;-90
2022/10/10 10:28:17;;;;;;;12.73;5.40;;;;;;;12.84;69.79;101928.21;1820838;76;21036;-90
2022/10/10 10:30:54;;;;;;;9.25;5.55;;;;;;;12.90;69.87;101923.56;1796900;79;21767;-90
2022/10/10 10:33:44;;;;;;;9.58;4.78;;;;;;;12.95;69.48;101914.45;1839931;77;20978;-90
2022/10/10 10:36:45;;;;;;;7.28;4.70;;;;;;;12.96;69.18;101908.34;1853764;77;21027;-84
2022/10/10 10:39:37;;;;;;;9.95;5.67;;;;;;;12.99;68.87;101901.41;1842612;77;21805;-84
2022/10/10 10:42:33;;;;;;;6.08;4.15;;;;;;;13.02;68.74;101894.88;1820284;77;21049;-91
2022/10/10 10:45:27;;;;;;;8.25;4.90;;;;;;;13.07;68.64;101895.48;1833636;77;21046;-92
2022/10/10 10:48:09;;;;;;;9.30;5.40;;;;;;;13.11;68.47;101887.69;1820449;77;21034;-92
2022/10/10 10:50:55;;;;;;;9.55;5.28;;;;;;;13.16;68.36;101875.97;1800135;76;21031;-91
2022/10/10 10:53:36;;;;;;;9.20;5.53;;;;;;;13.16;68.16;101872.00;1834239;77;21931;-85
2022/10/10 10:56:38;;;;;;;8.55;5.28;;;;;;;13.16;68.13;101864.06;1829429;77;21324;-92
2022/10/10 10:59:52;;;;;;;15.70;7.80;;;;;;;13.19;68.05;101866.39;1841416;77;20984;-91
2022/10/10 11:02:47;;;;;;;11.78;5.90;;;;;;;13.19;67.74;101852.25;1833981;77;21022;-84
2022/10/10 11:05:22;;;;;;;11.00;6.47;;;;;;;13.19;67.51;101851.84;1822095;78;21102;-91
2022/10/10 11:08:14;;;;;;;10.10;6.15;;;;;;;13.22;67.50;101841.78;1845410;77;22419;-90
2022/10/10 11:10:50;;;;;;;11.90;5.85;;;;;;;13.27;67.45;101832.66;1840080;76;21027;-91
2022/10/10 11:13:25;;;;;;;12.55;8.93;;;;;;;13.32;67.43;101828.02;1878102;75;21588;-91
2022/10/10 11:16:17;;;;;;;8.60;5.37;;;;;;;13.35;67.25;101812.69;1835415;76;21045;-90
2022/10/10 11:18:56;;;;;;;8.53;5.00;;;;;;;13.30;67.09;101801.03;1822992;78;21047;-91
2022/10/10 11:21:24;;;;;;;9.48;5.55;;;;;;;13.37;66.88;101812.31;1757936;76;21804;-91
2022/10/10 11:24:01;;;;;;;8.90;5.47;;;;;;;13.36;66.62;101805.21;1842447;77;21014;-84
2022/10/10 11:26:37;;;;;;;10.98;6.15;;;;;;;13.37;66.63;101797.77;1818769;77;21042;-84
2022/10/10 11:29:13;;;;;;;12.60;5.80;;;;;;;13.40;66.73;101796.52;1816765;76;21638;-91
2022/10/10 11:32:01;;;;;;;10.08;5.95;;;;;;;13.45;66.69;101796.67;1819529;76;21101;-84
2022/10/10 11:34:33;;;;;;;12.43;6.87;;;;;;;13.48;66.59;101791.48;1835654;77;21728;-83
2022/10/10 11:37:07;;;;;;;10.25;5.58;;;;;;;13.48;66.41;101784.88;1809334;77;21106;-83
2022/10/10 11:39:54;;;;;;;;;;;;;;;13.49;66.42;101784.00;1821822;77;21025;-84
2022/10/10 11:42:28;;;;;;;9.43;5.55;;;;;;;13.51;66.34;101779.66;1819044;77;20190;-83
2022/10/10 11:45:15;;;;;;;8.93;5.35;;;;;;;13.53;66.21;101770.93;1839851;75;21710;-90
2022/10/10 11:48:21;;;;;;;13.75;9.03;;;;;;;13.56;66.23;101764.82;1830408;77;21175;-91
2022/10/10 11:50:53;;;;;;;15.40;8.25;;;;;;;13.60;66.07;101766.27;1847161;77;21077;-90